Time;durP1;ratioP1;P1;durP2;ratioP2;P2;SDS_P1;SDS_P2;PMS_P1;PMS_P2;Temp;Humidity;BMP_temperature;BMP_pressure;BME280_temperature;BME280_humidity;BME280_pressure;Samples;Min_cycle;Max_cycle;Signal;HPM_P1;HPM_P2
2022/10/06 00:00:28;;;;;;;6.07;1.60;;;13.70;99.90;;;;;;5052300;28;20041;-63
2022/10/06 00:02:53;;;;;;;4.40;1.30;;;13.70;99.90;;;;;;5051031;28;20098;-63
2022/10/06 00:05:19;;;;;;;4.30;1.27;;;13.70;99.90;;;;;;5050401;28;20041;-64
2022/10/06 00:07:44;;;;;;;5.72;1.45;;;13.60;99.90;;;;;;5051509;28;20037;-68
2022/10/06 00:10:10;;;;;;;7.30;1.80;;;13.60;99.90;;;;;;5051306;28;20047;-63
2022/10/06 00:12:50;;;;;;;7.35;1.70;;;13.60;99.90;;;;;;5051022;28;20410;-64
2022/10/06 00:15:20;;;;;;;6.03;1.77;;;13.70;99.90;;;;;;5052295;28;20045;-63
2022/10/06 00:17:45;;;;;;;7.70;1.52;;;13.60;99.90;;;;;;5050242;28;20842;-63
2022/10/06 00:20:11;;;;;;;5.28;1.60;;;13.60;99.90;;;;;;5050947;28;20049;-63
2022/10/06 00:22:42;;;;;;;7.82;1.65;;;13.60;99.90;;;;;;5051217;28;20083;-64
2022/10/06 00:25:10;;;;;;;5.07;1.50;;;13.60;99.90;;;;;;5051367;28;20041;-64
2022/10/06 00:27:38;;;;;;;6.93;1.90;;;13.60;99.90;;;;;;5050315;28;20044;-64
2022/10/06 00:30:06;;;;;;;4.90;1.73;;;13.60;99.90;;;;;;5051159;28;20115;-63
2022/10/06 00:32:31;;;;;;;9.25;1.80;;;13.60;99.90;;;;;;5050249;28;20040;-64
2022/10/06 00:34:58;;;;;;;12.05;1.60;;;13.50;99.90;;;;;;5051742;28;20052;-64
2022/10/06 00:37:28;;;;;;;9.00;2.15;;;13.50;99.90;;;;;;5050375;28;20103;-63
2022/10/06 00:39:54;;;;;;;8.50;2.22;;;13.50;99.90;;;;;;5050373;28;20084;-63
2022/10/06 00:42:31;;;;;;;7.07;1.38;;;13.50;99.90;;;;;;5049382;28;20378;-63
2022/10/06 00:45:02;;;;;;;5.10;1.83;;;13.50;99.90;;;;;;5050965;28;20051;-64
2022/10/06 00:47:30;;;;;;;5.60;1.55;;;13.50;99.90;;;;;;5051599;28;20033;-64
2022/10/06 00:50:01;;;;;;;5.50;1.50;;;13.50;99.90;;;;;;5050778;28;20128;-63
2022/10/06 00:52:29;;;;;;;12.38;1.98;;;13.50;99.90;;;;;;5050642;28;20048;-64
2022/10/06 00:54:57;;;;;;;9.75;1.85;;;13.50;99.90;;;;;;5051346;28;20037;-64
2022/10/06 00:57:24;;;;;;;8.48;1.98;;;13.40;99.90;;;;;;5051372;28;20048;-63
2022/10/06 00:59:50;;;;;;;10.63;2.30;;;13.40;99.90;;;;;;5051032;28;20040;-63
2022/10/06 01:02:32;;;;;;;7.03;1.80;;;13.40;99.90;;;;;;5049822;28;20095;-64
2022/10/06 01:05:02;;;;;;;7.22;2.13;;;13.40;99.90;;;;;;5051224;28;20044;-64
2022/10/06 01:07:28;;;;;;;10.50;1.90;;;13.40;99.90;;;;;;5051163;28;20037;-64
2022/10/06 01:09:56;;;;;;;9.50;1.92;;;13.40;99.90;;;;;;5051001;28;20037;-64
2022/10/06 01:12:24;;;;;;;9.07;2.15;;;13.40;99.90;;;;;;5050947;28;20047;-63
2022/10/06 01:14:51;;;;;;;8.05;1.98;;;13.50;99.90;;;;;;5049971;28;20095;-63
2022/10/06 01:17:45;;;;;;;11.25;2.45;;;13.50;99.90;;;;;;5051027;28;20387;-63
2022/10/06 01:20:15;;;;;;;8.35;2.08;;;13.50;99.90;;;;;;5041755;28;20381;-63
2022/10/06 01:22:47;;;;;;;10.60;2.40;;;13.50;99.90;;;;;;5050924;28;20110;-64
2022/10/06 01:25:16;;;;;;;8.25;2.40;;;13.50;99.90;;;;;;5051015;28;20057;-63
2022/10/06 01:27:45;;;;;;;8.60;1.80;;;13.50;99.90;;;;;;5050768;28;20024;-63
2022/10/06 01:30:15;;;;;;;9.25;1.95;;;13.40;99.90;;;;;;5050192;28;20124;-64
2022/10/06 01:32:41;;;;;;;10.32;1.90;;;13.40;99.90;;;;;;5050958;28;20412;-63
2022/10/06 01:35:08;;;;;;;8.00;1.95;;;13.40;99.90;;;;;;5050976;28;20462;-63
2022/10/06 01:37:33;;;;;;;8.73;2.00;;;13.40;99.90;;;;;;5050759;28;20073;-64
2022/10/06 01:39:59;;;;;;;9.27;2.80;;;13.40;99.90;;;;;;5050112;28;20517;-64
2022/10/06 01:42:25;;;;;;;9.25;2.13;;;13.30;99.90;;;;;;5050947;28;20454;-63
2022/10/06 01:44:51;;;;;;;7.05;2.05;;;13.30;99.90;;;;;;5050927;28;20041;-63
2022/10/06 01:47:16;;;;;;;8.38;1.95;;;13.20;99.90;;;;;;5050644;28;20405;-64
2022/10/06 01:49:42;;;;;;;10.75;2.28;;;13.10;99.90;;;;;;5050456;28;20030;-64
2022/10/06 01:52:08;;;;;;;11.30;2.25;;;13.10;99.90;;;;;;5053201;28;20482;-64
2022/10/06 01:54:34;;;;;;;8.80;2.00;;;13.00;99.90;;;;;;5054907;28;20055;-63
2022/10/06 01:57:00;;;;;;;9.60;2.20;;;13.00;99.90;;;;;;5054628;28;20458;-64
2022/10/06 01:59:25;;;;;;;7.57;2.20;;;12.90;99.90;;;;;;5036735;28;20052;-63
2022/10/06 02:01:51;;;;;;;11.88;2.30;;;12.90;99.90;;;;;;5054442;28;20140;-64
2022/10/06 02:04:17;;;;;;;10.82;2.15;;;12.90;99.90;;;;;;5054579;28;20037;-63
2022/10/06 02:06:42;;;;;;;11.18;2.35;;;12.80;99.90;;;;;;5053366;28;20113;-63
2022/10/06 02:09:08;;;;;;;11.02;2.03;;;12.80;99.90;;;;;;5054291;28;20037;-63
2022/10/06 02:11:34;;;;;;;10.18;2.30;;;12.80;99.90;;;;;;5054372;28;20135;-63
2022/10/06 02:14:00;;;;;;;11.18;2.45;;;12.80;99.90;;;;;;5053045;28;20037;-64
2022/10/06 02:16:27;;;;;;;11.18;2.15;;;12.80;99.90;;;;;;5053644;28;20040;-63
2022/10/06 02:18:53;;;;;;;9.88;2.42;;;12.80;99.90;;;;;;5054130;28;20033;-63
2022/10/06 02:21:21;;;;;;;8.88;2.45;;;12.90;99.90;;;;;;5054091;28;20048;-64
2022/10/06 02:23:47;;;;;;;9.95;2.03;;;12.80;99.90;;;;;;5036294;28;20124;-63
2022/10/06 02:26:18;;;;;;;11.60;2.05;;;12.80;99.90;;;;;;5053964;28;20323;-63
2022/10/06 02:28:45;;;;;;;11.13;2.20;;;12.70;99.90;;;;;;5053829;28;20422;-64
2022/10/06 02:31:12;;;;;;;12.10;2.45;;;12.80;99.90;;;;;;5054115;28;20033;-63
2022/10/06 02:33:39;;;;;;;9.85;2.33;;;12.80;99.90;;;;;;5053184;28;20067;-63
2022/10/06 02:36:06;;;;;;;12.23;2.95;;;12.80;99.90;;;;;;5054493;28;20036;-64
2022/10/06 02:38:32;;;;;;;12.95;2.63;;;12.80;99.90;;;;;;5053516;28;20033;-63
2022/10/06 02:40:58;;;;;;;11.93;3.15;;;12.80;99.90;;;;;;5052526;28;20052;-63
2022/10/06 02:43:28;;;;;;;12.60;2.72;;;12.80;99.90;;;;;;5053854;28;20041;-63
2022/10/06 02:46:03;;;;;;;14.85;3.78;;;12.80;99.90;;;;;;5054331;28;20037;-63
2022/10/06 02:48:30;;;;;;;11.18;2.75;;;12.80;99.90;;;;;;5053665;28;20095;-64
2022/10/06 02:50:57;;;;;;;11.30;2.80;;;12.90;99.90;;;;;;5053632;28;20048;-63
2022/10/06 02:53:26;;;;;;;9.13;2.15;;;12.80;99.90;;;;;;5052117;28;20227;-63
2022/10/06 02:56:06;;;;;;;9.27;2.40;;;12.80;99.90;;;;;;5053281;28;20055;-63
2022/10/06 02:58:32;;;;;;;11.25;3.00;;;12.80;99.90;;;;;;5052930;28;20045;-62
2022/10/06 03:01:06;;;;;;;11.38;2.70;;;12.80;99.90;;;;;;5053252;28;20091;-62
2022/10/06 03:03:36;;;;;;;9.77;2.53;;;12.80;99.90;;;;;;5052701;28;20437;-63
2022/10/06 03:06:20;;;;;;;8.45;1.88;;;12.80;99.90;;;;;;5053831;28;20077;-63
2022/10/06 03:09:00;;;;;;;12.57;2.88;;;12.70;99.90;;;;;;5052062;28;20115;-63
2022/10/06 03:11:29;;;;;;;10.68;2.70;;;12.80;99.90;;;;;;5053123;28;20045;-63
2022/10/06 03:13:56;;;;;;;7.22;2.13;;;12.70;99.90;;;;;;5052982;28;20080;-63
2022/10/06 03:16:26;;;;;;;8.80;2.20;;;12.60;99.90;;;;;;5053358;28;20044;-63
2022/10/06 03:18:53;;;;;;;9.65;2.38;;;12.60;99.90;;;;;;5053059;28;20122;-62
2022/10/06 03:21:22;;;;;;;12.95;2.90;;;12.60;99.90;;;;;;5053046;28;20037;-64
2022/10/06 03:23:50;;;;;;;10.75;2.55;;;12.60;99.90;;;;;;5052775;28;20040;-62
2022/10/06 03:26:19;;;;;;;11.93;2.83;;;12.50;99.90;;;;;;5051938;28;20079;-62
2022/10/06 03:28:45;;;;;;;14.48;3.22;;;12.50;99.90;;;;;;5052662;28;20037;-62
2022/10/06 03:31:11;;;;;;;14.50;2.90;;;12.50;99.90;;;;;;5052677;28;20043;-63
2022/10/06 03:33:36;;;;;;;8.70;2.13;;;12.50;99.90;;;;;;5053234;28;20116;-62
2022/10/06 03:36:08;;;;;;;8.98;2.20;;;12.50;99.90;;;;;;5052795;28;20429;-62
2022/10/06 03:38:35;;;;;;;13.55;3.35;;;12.40;99.90;;;;;;5052321;28;20068;-62
2022/10/06 03:41:06;;;;;;;13.18;2.83;;;12.40;99.90;;;;;;5052376;28;20045;-62
2022/10/06 03:43:33;;;;;;;9.07;2.00;;;12.50;99.90;;;;;;5054814;28;20047;-62
2022/10/06 03:46:00;;;;;;;9.15;2.10;;;12.50;99.90;;;;;;5052540;28;20354;-62
2022/10/06 03:48:27;;;;;;;9.73;2.70;;;12.40;99.90;;;;;;5052463;28;20033;-61
2022/10/06 03:51:02;;;;;;;12.02;2.83;;;12.40;99.90;;;;;;5052339;28;20350;-62
2022/10/06 03:53:29;;;;;;;9.50;3.00;;;12.30;99.90;;;;;;5052241;28;20352;-62
2022/10/06 03:55:59;;;;;;;14.05;2.47;;;12.30;99.90;;;;;;5051586;28;20539;-62
2022/10/06 03:58:29;;;;;;;11.70;2.30;;;12.30;99.90;;;;;;5052390;28;20033;-62
2022/10/06 04:01:07;;;;;;;12.77;2.35;;;12.30;99.90;;;;;;5052177;28;20361;-62
2022/10/06 04:03:33;;;;;;;8.70;2.00;;;12.20;99.90;;;;;;5052512;28;20056;-62
2022/10/06 04:06:01;;;;;;;12.80;2.65;;;12.10;99.90;;;;;;5052602;28;20068;-63
2022/10/06 04:08:28;;;;;;;13.43;2.80;;;12.10;99.90;;;;;;5052016;28;20146;-62
2022/10/06 04:10:54;;;;;;;9.93;2.38;;;12.00;99.90;;;;;;5052194;28;20059;-62
2022/10/06 04:13:21;;;;;;;10.52;2.00;;;11.90;99.90;;;;;;5052583;28;20541;-62
2022/10/06 04:15:47;;;;;;;10.65;2.13;;;11.90;99.90;;;;;;5050321;28;20461;-62
2022/10/06 04:18:14;;;;;;;14.15;2.15;;;11.80;99.90;;;;;;5052003;28;20041;-62
2022/10/06 04:20:40;;;;;;;9.15;2.38;;;11.80;99.90;;;;;;5051933;28;20033;-63
2022/10/06 04:23:06;;;;;;;9.15;2.13;;;11.70;99.90;;;;;;5052053;28;20492;-63
2022/10/06 04:25:32;;;;;;;10.38;2.40;;;11.70;99.90;;;;;;5050739;28;20045;-64
2022/10/06 04:27:58;;;;;;;9.68;2.47;;;11.60;99.90;;;;;;5051887;28;20068;-63
2022/10/06 04:30:25;;;;;;;9.93;2.05;;;11.60;99.90;;;;;;5034083;28;20457;-64
2022/10/06 04:32:51;;;;;;;11.07;2.47;;;11.50;99.90;;;;;;5050841;28;20045;-63
2022/10/06 04:35:16;;;;;;;13.30;2.85;;;11.50;99.90;;;;;;5042278;28;20045;-62
2022/10/06 04:37:42;;;;;;;10.52;2.63;;;11.40;99.90;;;;;;5046572;28;20044;-63
2022/10/06 04:40:08;;;;;;;10.93;2.53;;;11.40;99.90;;;;;;5051158;28;20063;-63
2022/10/06 04:42:35;;;;;;;8.98;2.33;;;11.40;99.90;;;;;;5037923;28;20077;-64
2022/10/06 04:45:01;;;;;;;8.70;2.20;;;11.20;99.90;;;;;;5051025;28;20102;-64
2022/10/06 04:47:27;;;;;;;11.63;2.67;;;11.30;99.90;;;;;;5052334;28;20043;-63
2022/10/06 04:49:52;;;;;;;11.75;2.40;;;11.30;99.90;;;;;;5051860;28;20045;-64
2022/10/06 04:52:18;;;;;;;8.55;2.20;;;11.20;99.90;;;;;;5051754;28;20055;-63
2022/10/06 04:54:44;;;;;;;12.73;2.50;;;11.10;99.90;;;;;;5051487;28;20088;-63
2022/10/06 04:57:09;;;;;;;11.20;2.20;;;11.00;99.90;;;;;;5050765;28;20037;-63
2022/10/06 05:02:19;;;;;;;9.55;2.08;;;10.90;99.90;;;;;;5050360;28;20052;-63
2022/10/06 05:04:45;;;;;;;11.55;2.03;;;10.90;99.90;;;;;;5051965;28;20335;-64
2022/10/06 05:07:11;;;;;;;11.00;2.45;;;10.80;99.90;;;;;;5050730;28;20064;-63
2022/10/06 05:09:36;;;;;;;7.63;2.35;;;10.80;99.90;;;;;;5032274;28;20064;-63
2022/10/06 05:12:02;;;;;;;10.82;2.28;;;10.80;99.90;;;;;;5049520;28;20428;-63
2022/10/06 05:14:28;;;;;;;11.07;2.28;;;10.70;99.90;;;;;;5051705;28;20144;-62
2022/10/06 05:16:54;;;;;;;10.48;2.83;;;10.70;99.90;;;;;;5050467;28;20045;-63
2022/10/06 05:19:20;;;;;;;12.90;2.75;;;10.70;99.90;;;;;;5049548;28;20412;-63
2022/10/06 05:21:45;;;;;;;13.95;2.85;;;10.60;99.90;;;;;;5051021;28;20041;-64
2022/10/06 05:24:11;;;;;;;8.60;2.33;;;10.60;99.90;;;;;;5050069;28;20067;-63
2022/10/06 05:26:36;;;;;;;11.98;3.08;;;10.60;99.90;;;;;;5054765;28;20036;-63
2022/10/06 05:29:03;;;;;;;7.00;2.30;;;10.50;99.90;;;;;;5055037;28;20036;-64
2022/10/06 05:31:31;;;;;;;10.90;2.78;;;10.50;99.90;;;;;;5056155;28;20045;-64
2022/10/06 05:33:58;;;;;;;13.73;2.40;;;10.40;99.90;;;;;;5057948;28;20041;-63
2022/10/06 05:36:28;;;;;;;10.25;2.53;;;10.40;99.90;;;;;;5058954;28;20029;-63
2022/10/06 05:38:55;;;;;;;13.80;2.40;;;10.40;99.90;;;;;;5056216;28;20068;-63
2022/10/06 05:41:25;;;;;;;11.68;2.53;;;10.40;99.90;;;;;;5054615;28;20474;-62
2022/10/06 05:43:52;;;;;;;14.57;2.85;;;10.40;99.90;;;;;;5056919;28;20085;-62
2022/10/06 05:46:23;;;;;;;8.77;2.33;;;10.40;99.90;;;;;;5056380;28;20041;-63
2022/10/06 05:48:51;;;;;;;14.38;2.78;;;10.40;99.90;;;;;;5054986;28;20107;-64
2022/10/06 05:51:18;;;;;;;9.82;2.58;;;10.30;99.90;;;;;;5055080;28;20064;-64
2022/10/06 05:53:44;;;;;;;12.07;2.65;;;10.30;99.90;;;;;;5056986;28;20037;-64
2022/10/06 05:56:15;;;;;;;9.93;2.65;;;10.30;99.90;;;;;;5056002;28;20116;-61
2022/10/06 05:58:43;;;;;;;10.85;2.40;;;10.30;99.90;;;;;;5057359;28;20366;-62
2022/10/06 06:01:11;;;;;;;10.10;2.88;;;10.30;99.90;;;;;;5057722;28;20041;-63
2022/10/06 06:03:38;;;;;;;10.60;2.53;;;10.30;99.90;;;;;;5056267;28;20123;-64
2022/10/06 06:06:30;;;;;;;11.02;2.70;;;10.20;99.90;;;;;;5056565;28;20039;-64
2022/10/06 06:09:10;;;;;;;11.30;2.70;;;10.30;99.90;;;;;;5057959;28;20037;-64
2022/10/06 06:11:38;;;;;;;14.02;3.05;;;10.30;99.90;;;;;;5055712;28;20037;-64
2022/10/06 06:14:06;;;;;;;9.02;2.03;;;10.40;99.90;;;;;;5046565;28;20040;-64
2022/10/06 06:16:32;;;;;;;9.70;2.72;;;10.40;99.90;;;;;;5057630;28;20072;-64
2022/10/06 06:18:59;;;;;;;12.88;2.55;;;10.40;99.90;;;;;;5058277;28;20052;-64
2022/10/06 06:21:25;;;;;;;13.95;3.10;;;10.50;99.90;;;;;;5057366;28;20032;-64
2022/10/06 06:23:51;;;;;;;12.13;3.03;;;10.50;99.90;;;;;;5055507;28;21012;-64
2022/10/06 06:26:23;;;;;;;10.25;2.42;;;10.60;99.90;;;;;;5056142;28;20353;-64
2022/10/06 06:28:49;;;;;;;12.85;3.13;;;10.60;99.90;;;;;;5055336;28;20339;-64
2022/10/06 06:31:22;;;;;;;10.98;2.65;;;10.70;99.90;;;;;;5056336;28;20438;-65
2022/10/06 06:33:51;;;;;;;8.65;2.30;;;10.70;99.90;;;;;;5055983;28;20132;-63
2022/10/06 06:36:25;;;;;;;13.13;2.45;;;10.80;99.90;;;;;;5055998;28;20041;-63
2022/10/06 06:38:52;;;;;;;;;;;10.80;99.90;;;;;;5053716;28;20123;-63
2022/10/06 06:41:23;;;;;;;12.00;2.28;;;10.80;99.90;;;;;;5070495;28;19970;-63
2022/10/06 06:43:51;;;;;;;9.00;2.33;;;10.90;99.90;;;;;;5051004;28;20063;-64
2022/10/06 06:46:20;;;;;;;10.38;2.17;;;11.00;99.90;;;;;;5052239;28;20044;-64
2022/10/06 06:48:46;;;;;;;10.00;2.67;;;11.10;99.90;;;;;;5049044;28;20102;-64
2022/10/06 06:51:12;;;;;;;11.70;2.55;;;11.20;99.90;;;;;;5053515;28;20037;-63
2022/10/06 06:53:39;;;;;;;11.10;2.50;;;11.30;99.90;;;;;;5051843;28;20049;-63
2022/10/06 06:56:07;;;;;;;7.93;2.47;;;11.30;99.90;;;;;;5052796;28;20052;-63
2022/10/06 06:58:33;;;;;;;13.20;2.50;;;11.40;99.90;;;;;;5053053;28;20045;-63
2022/10/06 07:01:12;;;;;;;13.20;2.45;;;11.50;99.90;;;;;;5045537;28;20045;-64
2022/10/06 07:03:44;;;;;;;8.48;3.00;;;11.60;99.90;;;;;;5051836;28;20041;-63
2022/10/06 07:06:13;;;;;;;8.88;2.38;;;11.60;99.90;;;;;;5052060;28;20354;-62
2022/10/06 07:08:43;;;;;;;10.93;2.17;;;11.70;99.90;;;;;;5041747;28;20028;-63
2022/10/06 07:11:27;;;;;;;10.43;2.42;;;11.80;99.90;;;;;;5052946;28;20056;-63
2022/10/06 07:13:54;;;;;;;;;;;11.90;99.90;;;;;;5051817;28;20040;-63
2022/10/06 07:25:06;;;;;;;14.40;2.97;;;12.20;99.90;;;;;;5053335;28;20138;-63
2022/10/06 07:27:58;;;;;;;12.30;2.97;;;12.30;99.90;;;;;;5051038;28;20052;-63
2022/10/06 07:30:26;;;;;;;8.32;2.60;;;12.30;99.90;;;;;;5050727;28;20044;-63
2022/10/06 07:32:52;;;;;;;13.18;2.75;;;12.40;99.90;;;;;;5051169;28;20151;-63
2022/10/06 07:35:20;;;;;;;9.23;2.28;;;12.50;99.90;;;;;;5052268;28;20041;-64
2022/10/06 07:37:46;;;;;;;10.75;2.92;;;12.60;99.90;;;;;;5051453;28;20056;-63
2022/10/06 07:40:12;;;;;;;10.65;2.60;;;12.70;99.90;;;;;;5051323;28;20057;-63
2022/10/06 07:42:48;;;;;;;10.18;2.15;;;12.80;99.90;;;;;;5052775;28;20150;-63
2022/10/06 07:48:00;;;;;;;9.98;2.63;;;13.00;99.90;;;;;;5053585;28;20132;-63
2022/10/06 07:50:25;;;;;;;10.82;2.45;;;13.00;99.90;;;;;;5053199;28;20033;-63
2022/10/06 07:52:51;;;;;;;9.95;2.60;;;13.10;99.90;;;;;;5051876;28;20056;-63
2022/10/06 07:55:17;;;;;;;9.82;2.50;;;13.20;99.90;;;;;;5046647;28;20079;-63
2022/10/06 07:57:44;;;;;;;7.18;2.13;;;13.30;99.90;;;;;;5044549;28;20040;-64
2022/10/06 08:00:11;;;;;;;14.77;3.63;;;13.30;99.90;;;;;;5051680;28;20048;-66
2022/10/06 08:02:38;;;;;;;10.27;2.65;;;13.50;99.90;;;;;;5050943;28;20053;-63
2022/10/06 08:05:04;;;;;;;9.57;2.47;;;13.50;99.90;;;;;;5050323;28;20446;-63
2022/10/06 08:07:30;;;;;;;11.63;2.63;;;13.50;99.90;;;;;;5051540;28;20033;-63
2022/10/06 08:09:55;;;;;;;8.98;2.30;;;13.60;99.90;;;;;;5050165;28;20060;-63
2022/10/06 08:12:33;;;;;;;10.98;2.78;;;13.60;99.90;;;;;;5054393;28;20361;-63
2022/10/06 08:15:17;;;;;;;13.63;3.13;;;13.70;99.90;;;;;;5035137;28;20060;-63
2022/10/06 08:17:43;;;;;;;13.23;2.67;;;13.80;99.90;;;;;;5052357;28;20059;-64
2022/10/06 08:20:10;;;;;;;9.88;3.13;;;13.80;99.90;;;;;;5051755;28;20343;-63
2022/10/06 08:22:38;;;;;;;12.40;3.17;;;13.90;99.90;;;;;;5052584;28;20142;-63
2022/10/06 08:25:05;;;;;;;14.35;2.63;;;14.00;99.90;;;;;;5051445;28;20055;-64
2022/10/06 08:27:33;;;;;;;10.52;2.33;;;14.00;99.90;;;;;;5050898;28;20060;-63
2022/10/06 08:29:58;;;;;;;13.15;2.65;;;14.00;99.90;;;;;;5052411;28;20056;-63
2022/10/06 08:32:24;;;;;;;9.52;2.35;;;14.10;99.90;;;;;;5034038;28;20041;-63
2022/10/06 08:34:50;;;;;;;9.60;2.28;;;14.20;99.90;;;;;;5033468;28;20128;-63
2022/10/06 08:37:22;;;;;;;11.98;2.88;;;14.30;99.90;;;;;;5052037;28;20351;-63
2022/10/06 08:39:52;;;;;;;12.73;2.50;;;14.40;99.90;;;;;;5050071;28;20053;-64
2022/10/06 08:42:36;;;;;;;11.40;2.75;;;14.40;99.90;;;;;;5050142;28;20051;-63
2022/10/06 08:45:16;;;;;;;10.77;2.75;;;14.50;99.90;;;;;;5049602;28;20045;-62
2022/10/06 08:48:12;;;;;;;13.18;3.28;;;14.50;99.90;;;;;;5050282;28;20045;-62
2022/10/06 08:50:59;;;;;;;9.43;2.53;;;14.60;99.90;;;;;;5051366;28;20032;-62
2022/10/06 08:53:30;;;;;;;10.35;2.53;;;14.60;99.90;;;;;;5049996;28;20048;-62
2022/10/06 08:56:11;;;;;;;13.73;3.00;;;14.70;99.90;;;;;;5051566;28;20379;-62
2022/10/06 08:58:45;;;;;;;14.88;3.40;;;14.80;99.90;;;;;;5051516;28;20643;-63
2022/10/06 09:01:15;;;;;;;14.70;2.80;;;14.80;99.90;;;;;;5050924;28;20041;-62
2022/10/06 09:03:45;;;;;;;9.60;2.92;;;14.80;99.90;;;;;;5051246;28;20358;-62
2022/10/06 09:06:41;;;;;;;9.93;2.40;;;14.80;99.90;;;;;;5050026;28;20037;-62
2022/10/06 09:09:25;;;;;;;8.05;2.33;;;14.90;99.90;;;;;;5050632;28;20527;-63
2022/10/06 09:12:02;;;;;;;12.35;2.53;;;14.90;99.90;;;;;;5051092;28;20126;-62
2022/10/06 09:14:36;;;;;;;11.35;2.70;;;15.00;99.90;;;;;;5049515;28;20059;-62
2022/10/06 09:17:09;;;;;;;9.40;2.90;;;15.10;99.90;;;;;;5050068;28;20033;-62
2022/10/06 09:19:34;;;;;;;9.77;2.72;;;15.10;99.90;;;;;;5051119;28;20065;-62
2022/10/06 09:22:03;;;;;;;10.88;3.08;;;15.20;99.90;;;;;;5051120;28;20146;-62
2022/10/06 09:24:32;;;;;;;12.80;3.33;;;15.20;99.90;;;;;;5051011;28;20025;-63
2022/10/06 09:26:57;;;;;;;9.98;2.38;;;15.30;99.90;;;;;;5051781;28;20079;-62
2022/10/06 09:29:24;;;;;;;14.85;2.63;;;15.30;99.90;;;;;;5051201;28;20041;-62
2022/10/06 09:31:50;;;;;;;11.65;3.22;;;15.20;99.90;;;;;;5050321;28;20105;-64
2022/10/06 09:34:41;;;;;;;11.73;2.42;;;15.30;99.90;;;;;;5049798;28;20060;-64
2022/10/06 09:37:09;;;;;;;9.77;2.50;;;15.40;99.90;;;;;;5049952;28;20124;-64
2022/10/06 09:39:44;;;;;;;8.45;2.42;;;15.40;99.90;;;;;;5049184;28;20060;-63
2022/10/06 09:42:26;;;;;;;8.82;2.13;;;15.50;99.90;;;;;;5049757;28;20450;-65
2022/10/06 09:45:19;;;;;;;9.77;2.72;;;15.50;99.90;;;;;;5049862;28;20059;-64
2022/10/06 09:47:45;;;;;;;13.23;2.78;;;15.50;99.90;;;;;;5048943;28;20051;-63
2022/10/06 09:50:20;;;;;;;9.75;2.47;;;15.60;99.90;;;;;;5050774;28;20025;-65
2022/10/06 09:53:04;;;;;;;10.90;2.90;;;15.60;99.90;;;;;;5049267;28;20083;-63
2022/10/06 09:55:35;;;;;;;10.35;2.60;;;15.70;99.90;;;;;;5050372;28;20094;-64
2022/10/06 09:58:02;;;;;;;7.93;2.38;;;15.70;99.90;;;;;;5049675;28;20127;-64
2022/10/06 10:00:30;;;;;;;9.70;2.10;;;15.70;99.90;;;;;;5048182;28;20068;-63
2022/10/06 10:03:01;;;;;;;9.77;2.00;;;15.70;99.90;;;;;;5049640;28;20045;-64
2022/10/06 10:05:36;;;;;;;8.40;2.50;;;15.70;99.90;;;;;;5049267;28;20048;-64
2022/10/06 10:08:07;;;;;;;10.80;2.47;;;15.80;99.90;;;;;;5050880;28;20040;-64
2022/10/06 10:10:35;;;;;;;11.55;2.22;;;15.80;99.90;;;;;;5049957;28;20119;-64
2022/10/06 10:13:01;;;;;;;9.85;2.70;;;15.80;99.90;;;;;;5051186;28;20076;-64
2022/10/06 10:15:31;;;;;;;12.25;2.60;;;15.70;99.90;;;;;;5054001;28;20040;-64
2022/10/06 10:18:11;;;;;;;13.75;2.55;;;15.60;99.90;;;;;;5054514;28;20073;-64
2022/10/06 10:21:05;;;;;;;8.55;2.47;;;15.60;99.90;;;;;;5052848;28;20047;-64
2022/10/06 10:23:35;;;;;;;10.88;2.50;;;15.60;99.90;;;;;;5059517;28;20048;-63
2022/10/06 10:26:25;;;;;;;9.15;2.22;;;15.60;99.90;;;;;;5050405;28;20095;-65
2022/10/06 10:29:18;;;;;;;9.60;2.15;;;15.60;99.90;;;;;;5051565;28;20033;-64
2022/10/06 10:32:19;;;;;;;8.63;2.17;;;15.70;99.90;;;;;;5051336;28;20202;-65
2022/10/06 10:35:15;;;;;;;9.50;2.25;;;15.70;99.90;;;;;;5050900;28;20132;-64
2022/10/06 10:38:02;;;;;;;7.72;2.15;;;15.90;99.90;;;;;;5052064;28;20437;-63
2022/10/06 10:40:36;;;;;;;9.93;3.13;;;15.90;99.90;;;;;;5053329;28;20063;-64
2022/10/06 10:43:14;;;;;;;9.23;2.33;;;16.10;99.90;;;;;;5052759;28;20041;-64
2022/10/06 10:46:20;;;;;;;7.57;2.30;;;16.20;99.90;;;;;;5051599;28;20052;-64
2022/10/06 10:48:56;;;;;;;9.90;2.30;;;16.40;99.90;;;;;;5034558;28;20048;-63
2022/10/06 10:51:30;;;;;;;7.10;2.30;;;16.30;99.90;;;;;;5052928;28;20125;-63
2022/10/06 10:54:09;;;;;;;6.38;1.90;;;16.40;99.90;;;;;;5053421;28;20049;-63
2022/10/06 10:56:34;;;;;;;7.80;2.10;;;16.40;99.90;;;;;;5036721;28;20051;-63
2022/10/06 10:59:15;;;;;;;7.13;1.75;;;16.40;99.90;;;;;;5047009;28;20044;-63
2022/10/06 11:01:50;;;;;;;8.07;1.85;;;16.50;99.90;;;;;;5051248;28;20045;-63
2022/10/06 11:04:15;;;;;;;7.88;1.70;;;16.40;99.90;;;;;;5045566;28;20057;-63
2022/10/06 11:07:05;;;;;;;11.32;2.45;;;16.40;99.90;;;;;;5050106;28;20046;-63
2022/10/06 11:09:33;;;;;;;8.30;1.83;;;16.40;99.90;;;;;;5050154;28;20076;-63
2022/10/06 11:12:14;;;;;;;7.13;1.77;;;16.50;99.90;;;;;;5054781;28;20434;-63
2022/10/06 11:14:49;;;;;;;7.97;1.70;;;16.50;99.90;;;;;;5054650;28;20041;-63
2022/10/06 11:17:43;;;;;;;8.98;2.00;;;16.60;99.90;;;;;;5055694;28;20083;-63
2022/10/06 11:20:27;;;;;;;8.50;1.90;;;16.70;99.90;;;;;;5046165;28;20191;-63
2022/10/06 11:23:10;;;;;;;7.35;1.85;;;16.60;99.90;;;;;;5055703;28;20465;-63
2022/10/06 11:26:24;;;;;;;7.70;1.63;;;16.70;99.90;;;;;;5038442;28;20077;-63
2022/10/06 11:29:14;;;;;;;9.32;1.90;;;16.70;99.90;;;;;;5049292;28;20053;-63
2022/10/06 11:32:00;;;;;;;6.40;1.75;;;16.80;99.90;;;;;;5030196;28;20045;-63
2022/10/06 11:34:26;;;;;;;7.88;1.85;;;16.80;99.90;;;;;;5036618;28;20453;-63
2022/10/06 11:36:56;;;;;;;7.30;1.58;;;16.80;99.90;;;;;;5054177;28;20454;-62
2022/10/06 11:39:43;;;;;;;7.80;1.70;;;16.80;99.90;;;;;;5054473;28;20136;-62
2022/10/06 11:42:29;;;;;;;8.00;2.45;;;16.80;99.90;;;;;;5055091;28;20358;-62
2022/10/06 11:45:12;;;;;;;9.80;2.40;;;16.80;99.90;;;;;;5037768;28;20037;-63
2022/10/06 11:48:16;;;;;;;7.22;1.80;;;16.80;99.90;;;;;;5035426;28;20083;-63
2022/10/06 11:50:43;;;;;;;8.52;1.88;;;16.80;99.90;;;;;;5043829;28;20052;-62
2022/10/06 11:53:30;;;;;;;8.75;1.65;;;16.90;99.90;;;;;;5054819;28;20103;-62
2022/10/06 11:56:16;;;;;;;6.95;2.28;;;17.00;99.90;;;;;;5053912;28;20051;-62
2022/10/06 11:58:50;;;;;;;10.05;2.22;;;17.00;99.90;;;;;;5040400;28;20045;-62
2022/10/06 12:01:37;;;;;;;7.50;1.95;;;16.90;99.90;;;;;;5053769;28;20378;-63
2022/10/06 12:04:09;;;;;;;9.75;2.15;;;16.90;99.90;;;;;;5055073;28;20077;-62
2022/10/06 12:06:40;;;;;;;9.25;2.47;;;16.80;99.90;;;;;;5054965;28;20119;-62
2022/10/06 12:09:24;;;;;;;5.90;1.70;;;16.80;99.90;;;;;;5054900;28;20033;-62
2022/10/06 12:12:00;;;;;;;7.65;1.92;;;16.90;99.90;;;;;;5055006;28;20051;-62
2022/10/06 12:14:31;;;;;;;5.93;2.13;;;16.90;99.90;;;;;;5053640;28;20454;-62
2022/10/06 12:17:35;;;;;;;7.32;1.92;;;16.90;99.90;;;;;;5054645;28;20111;-62
2022/10/06 12:20:33;;;;;;;9.55;2.30;;;16.90;99.90;;;;;;5054741;28;20055;-62
2022/10/06 12:23:13;;;;;;;5.55;2.03;;;17.00;99.90;;;;;;5054629;28;20128;-62
2022/10/06 12:26:22;;;;;;;8.25;1.95;;;17.00;99.90;;;;;;5053956;28;20041;-62
2022/10/06 12:29:17;;;;;;;8.68;1.63;;;17.00;99.90;;;;;;5050781;28;20060;-62
2022/10/06 12:31:59;;;;;;;7.45;1.80;;;16.90;99.90;;;;;;5053739;28;20506;-62
2022/10/06 12:34:51;;;;;;;6.30;1.85;;;17.00;99.90;;;;;;5054777;28;20041;-62
2022/10/06 12:37:35;;;;;;;9.10;1.80;;;17.00;99.90;;;;;;5054201;28;20047;-62
2022/10/06 12:40:42;;;;;;;8.15;2.17;;;17.00;99.90;;;;;;5054012;28;20489;-62
2022/10/06 12:43:17;;;;;;;10.90;2.25;;;17.10;99.90;;;;;;5054057;28;20445;-62
2022/10/06 12:45:47;;;;;;;10.60;2.10;;;17.00;99.90;;;;;;5054782;28;20055;-62
2022/10/06 12:48:39;;;;;;;4.68;1.48;;;17.00;99.90;;;;;;5054484;28;20107;-62
2022/10/06 12:51:31;;;;;;;9.65;1.95;;;17.10;99.90;;;;;;5048746;28;20120;-62
2022/10/06 12:54:18;;;;;;;9.02;2.00;;;17.30;99.90;;;;;;5047827;28;20124;-62
2022/10/06 12:57:13;;;;;;;7.65;2.25;;;17.30;99.90;;;;;;5054368;28;20056;-62
2022/10/06 12:59:39;;;;;;;8.98;2.33;;;17.30;99.90;;;;;;5052423;28;20052;-62
2022/10/06 13:02:22;;;;;;;9.10;2.40;;;17.30;99.90;;;;;;5053213;28;20041;-62
2022/10/06 13:04:52;;;;;;;9.13;2.72;;;17.30;99.90;;;;;;5054138;28;20486;-62
2022/10/06 13:07:23;;;;;;;10.48;2.53;;;17.20;99.90;;;;;;5034340;28;20075;-63
2022/10/06 13:10:09;;;;;;;7.57;2.20;;;17.20;99.90;;;;;;5044900;28;20041;-62
2022/10/06 13:12:38;;;;;;;7.97;1.83;;;17.20;99.90;;;;;;5052891;28;20374;-62
2022/10/06 13:15:09;;;;;;;5.65;1.50;;;17.00;99.90;;;;;;5054222;28;20079;-62
2022/10/06 13:17:40;;;;;;;4.72;1.50;;;17.20;99.90;;;;;;5040674;28;20041;-62
2022/10/06 13:20:07;;;;;;;8.20;2.47;;;17.10;99.90;;;;;;5033167;28;20041;-62
2022/10/06 13:22:32;;;;;;;9.00;2.72;;;17.20;99.90;;;;;;5033834;28;20128;-62